Saturday, November 17, 2018, 1:43 AM EST
Back to Local

KMIV, Millville Municipal Airport

Location: Millville, NJ, United States Lat: 39.367
Local Time: 1:43 AM EST ( 6:43 GMT) Lon: -75.083
Time Zone: US/Eastern Elev: 85 ft

Show me the last for .
Show Decoded

2018-11-17 00:54 METAR KMIV 170554Z AUTO 27003KT 10SM CLR M02/M02 A3007 RMK AO2 SLP183 T10171022
                 10044 21017 51014 =
2018-11-16 23:54 METAR KMIV 170454Z AUTO 00000KT 10SM CLR 00/M01 A3007 RMK AO2 SLP181 T00001011
                 401001011 =
2018-11-16 22:54 METAR KMIV 170354Z AUTO 00000KT 10SM CLR 01/M02 A3005 RMK AO2 SLP175 T00061017 =
2018-11-16 21:54 METAR KMIV 170254Z AUTO 26006KT 10SM FEW036 03/M01 A3003 RMK AO2 SLP169
                 T00281011 51024 =
2018-11-16 20:54 METAR KMIV 170154Z AUTO 26008KT 10SM CLR 03/M01 A3001 RMK AO2 SLP161 T00331006 =
2018-11-16 19:54 METAR KMIV 170054Z AUTO 27006KT 10SM CLR 03/M01 A2998 RMK AO2 SLP153 T00281006 =
2018-11-16 18:54 METAR KMIV 162354Z AUTO 28007KT 10SM CLR 04/M01 A2996 RMK AO2 SLP145 T00441006
                 10089 20039 51027 =
2018-11-16 17:54 METAR KMIV 162254Z AUTO 28007KT 10SM CLR 05/00 A2994 RMK AO2 SLP137 T00500000 =
2018-11-16 16:54 METAR KMIV 162154Z AUTO 28008KT 10SM CLR 06/01 A2991 RMK AO2 SLP128 T00560006 =
2018-11-16 15:54 METAR KMIV 162054Z AUTO 28011G18KT 10SM OVC041 07/01 A2988 RMK AO2 SLP118
                 T00720006 53021 =
2018-11-16 14:54 METAR KMIV 161954Z AUTO 26016KT 10SM BKN035 09/01 A2985 RMK AO2 PK WND
                 27028/1924 SLP108 T00890011 =
2018-11-16 13:54 METAR KMIV 161854Z AUTO 30015G25KT 10SM BKN032 08/01 A2983 RMK AO2 SLP100
                 T00830011 =
2018-11-16 12:54 METAR KMIV 161754Z AUTO 29016G23KT 10SM BKN034 09/02 A2982 RMK AO2 PK WND
                 31026/1726 SLP096 T00890017 10089 20028 50013 =
2018-11-16 11:54 METAR KMIV 161654Z AUTO 30019G30KT 10SM BKN033 08/01 A2982 RMK AO2 PK WND
                 27030/1652 SLP097 T00780011 =
2018-11-16 11:05 METAR KMIV 161605Z AUTO 29016G23KT 10SM OVC030 07/01 A2983 RMK AO2 T00670006 =
2018-11-16 10:54 METAR KMIV 161554Z AUTO 30013G27KT 10SM BKN029 07/01 A2982 RMK AO2 PK WND
                 29027/1548 SLP098 T00670006 =
2018-11-16 10:46 METAR KMIV 161546Z AUTO 28015G23KT 10SM BKN029 06/01 A2982 RMK AO2 PK WND
                 28026/1527 T00610006 =
2018-11-16 09:54 METAR KMIV 161454Z AUTO 29017G26KT 10SM SCT021 06/01 A2978 RMK AO2 PK WND
                 30030/1441 SLP083 T00560011 51031 =
2018-11-16 09:06 METAR KMIV 161406Z AUTO 29014G24KT 10SM SCT016 04/02 A2977 RMK AO2 PK WND
                 30026/1356 T00440017 =
2018-11-16 08:54 METAR KMIV 161354Z AUTO 28014G21KT 10SM BKN016 04/02 A2977 RMK AO2 SLP079
                 T00440017 =
2018-11-16 07:54 METAR KMIV 161254Z AUTO 28016KT 10SM OVC016 03/01 A2973 RMK AO2 SLP067 T00280011
                 =
2018-11-16 07:42 METAR KMIV 161242Z AUTO 29011G19KT 10SM OVC016 03/01 A2972 RMK AO2 T00280011 =
2018-11-16 06:54 METAR KMIV 161154Z AUTO 29013G25KT 10SM OVC013 03/01 A2969 RMK AO2 SLP053 60008
                 70121 T00280011 10100 20028 53076 =
2018-11-16 06:45 METAR KMIV 161145Z AUTO 27017G22KT 10SM OVC013 03/01 A2968 RMK AO2 PRESRR
                 T00280011 =
2018-11-16 06:10 METAR KMIV 161110Z AUTO 30016G24KT 10SM OVC015 03/01 A2961 RMK AO2 T00280011 =
2018-11-16 05:54 METAR KMIV 161054Z AUTO 30016G26KT 10SM OVC013 03/01 A2960 RMK AO2 PK WND
                 31032/1008 RAB0957E06 SLP023 P0000 T00280011 =
2018-11-16 04:54 METAR KMIV 160954Z AUTO 29020G30KT 8SM OVC010 03/02 A2954 RMK AO2 PK WND
                 30035/0927 RAE35 SLP002 P0001 T00330022 =
2018-11-16 04:33 METAR KMIV 160933Z AUTO 29023G35KT 4SM -RA BR OVC008 04/03 A2952 RMK AO2 PK WND
                 30035/0927 PRESRR P0001 T00390028 =
2018-11-16 04:11 METAR KMIV 160911Z AUTO 28022G31KT 2SM -RA BR BKN006 OVC013 06/05 A2948 RMK AO2
                 PK WND 27031/0909 PRESRR P0000 T00560050 =
2018-11-16 03:54 METAR KMIV 160854Z AUTO 27017G28KT 1 3/4SM -RA BR OVC005 06/06 A2946 RMK AO2 PK
                 WND 25030/0842 PRESRR SLP976 P0005 60007 T00610056 55022 =
2018-11-16 03:26 METAR KMIV 160826Z AUTO 30005KT 2SM -RA BR BKN006 OVC013 10/10 A2942 RMK AO2
                 P0002 T01000100 =
2018-11-16 03:03 METAR KMIV 160803Z AUTO 00000KT 2 1/2SM -RA BR BKN004 OVC009 10/10 A2944 RMK AO2
                 P0000 T01000100 =
2018-11-16 02:54 METAR KMIV 160754Z AUTO 36003KT 1 3/4SM -RA BR BKN005 OVC009 10/10 A2944 RMK AO2
                 RAE0659B22 SLP967 P0002 T01000100 =
2018-11-16 02:40 METAR KMIV 160740Z AUTO 05006KT 1 3/4SM -RA BR BKN004 OVC009 10/10 A2944 RMK AO2
                 RAE0659B22 P0001 T01000100 =
2018-11-16 01:54 METAR KMIV 160654Z AUTO 05010KT 2 1/2SM -RA BR OVC006 10/10 A2947 RMK AO2
                 RAE04B31 PRESFR SLP979 P0000 T01000100 =

Support USWX by starting your Amazon purchase here.